Time;durP1;ratioP1;P1;durP2;ratioP2;P2;SDS_P1;SDS_P2;PMS_P1;PMS_P2;Temp;Humidity;BMP_temperature;BMP_pressure;BME280_temperature;BME280_humidity;BME280_pressure;Samples;Min_cycle;Max_cycle;Signal;HPM_P1;HPM_P2
2022/12/30 00:01:17;;;;;;;13.15;2.60;;;8.20;99.90;;;6.60;89.33;100026.41;4991181;28;20466;-78
2022/12/30 00:03:44;;;;;;;7.57;2.60;;;8.20;99.90;;;6.55;91.10;100033.47;4994549;28;20042;-78
2022/12/30 00:06:15;;;;;;;8.50;2.58;;;8.20;99.90;;;6.56;90.18;100037.84;5008061;28;20049;-78
2022/12/30 00:08:48;;;;;;;9.48;2.40;;;8.10;99.90;;;6.60;89.48;100045.38;4993957;28;20104;-79
2022/12/30 00:11:25;;;;;;;15.27;2.40;;;8.20;99.90;;;6.57;89.53;100040.38;4992492;28;20092;-77
2022/12/30 00:34:32;;;;;;;12.57;2.50;;;8.00;99.90;;;6.53;90.46;100070.78;4993563;28;20038;-78
2022/12/30 00:36:58;;;;;;;13.98;2.60;;;8.10;99.90;;;6.52;90.45;100077.25;4993981;28;20113;-77
2022/12/30 00:39:25;;;;;;;12.55;3.28;;;8.10;99.90;;;6.54;90.80;100083.31;4992718;28;20046;-78
2022/12/30 00:44:34;;;;;;;6.45;2.10;;;8.10;99.90;;;6.48;90.80;100096.63;4999409;28;20042;-78
2022/12/30 00:47:02;;;;;;;12.13;2.72;;;8.10;99.90;;;6.47;91.20;100094.97;4992127;28;20089;-75
2022/12/30 00:57:41;;;;;;;10.70;2.40;;;8.00;99.90;;;6.44;90.31;100114.34;4993640;28;20066;-77
2022/12/30 01:00:10;;;;;;;8.68;2.13;;;8.00;99.90;;;6.52;88.76;100140.44;4996639;28;20038;-76
2022/12/30 01:02:36;;;;;;;12.52;2.70;;;8.10;99.90;;;6.58;86.84;100120.66;4996785;28;20039;-78
2022/12/30 01:05:02;;;;;;;13.73;2.38;;;8.10;99.90;;;6.67;84.95;100125.88;4996016;28;20081;-77
2022/12/30 01:07:28;;;;;;;11.02;3.00;;;8.20;99.90;;;6.65;84.37;100117.13;4997292;28;20049;-77
2022/12/30 01:09:56;;;;;;;10.70;2.55;;;8.20;99.90;;;6.71;83.30;100138.81;5011529;28;20026;-78
2022/12/30 01:12:21;;;;;;;12.57;2.55;;;8.30;99.90;;;6.74;83.19;100137.56;4997043;28;20097;-77
2022/12/30 01:14:51;;;;;;;11.05;2.28;;;8.30;99.90;;;6.71;83.51;100133.41;4996314;28;20046;-77
2022/12/30 01:17:29;;;;;;;9.63;2.20;;;8.20;99.90;;;6.66;83.43;100138.59;4996932;28;20050;-78
2022/12/30 01:19:55;;;;;;;12.55;2.50;;;8.20;99.90;;;6.67;83.13;100147.56;4997133;28;20049;-78
2022/12/30 01:22:20;;;;;;;11.93;2.28;;;8.20;99.90;;;6.66;83.82;100146.75;4997434;28;20058;-78
2022/12/30 01:24:46;;;;;;;6.65;1.90;;;8.20;99.90;;;6.62;84.38;100159.00;4996621;28;20042;-78
2022/12/30 01:27:13;;;;;;;13.15;2.97;;;8.20;99.90;;;6.59;83.97;100151.28;4996298;28;20046;-78
2022/12/30 01:29:41;;;;;;;13.55;3.33;;;8.20;99.90;;;6.56;83.45;100163.38;4996389;28;20031;-76
2022/12/30 01:32:20;;;;;;;9.98;2.13;;;8.10;99.90;;;6.62;82.40;100164.44;4996664;28;20042;-77
2022/12/30 01:34:46;;;;;;;12.45;2.20;;;8.20;99.90;;;6.57;82.11;100166.91;4996506;28;20046;-77
2022/12/30 01:37:14;;;;;;;7.50;2.20;;;8.20;99.90;;;6.55;83.13;100166.28;4996397;28;20125;-78
2022/12/30 01:39:40;;;;;;;9.07;1.90;;;8.10;99.90;;;6.48;84.03;100166.25;5017608;28;20114;-78
2022/12/30 01:42:29;;;;;;;10.65;2.28;;;8.10;99.90;;;6.48;83.62;100182.50;4997517;28;20109;-78
2022/12/30 01:45:23;;;;;;;9.25;2.70;;;8.10;99.90;;;6.58;81.62;100172.16;4999507;28;20128;-77
2022/12/30 01:48:06;;;;;;;10.85;2.13;;;8.10;99.90;;;6.65;80.60;100187.59;4996361;28;20038;-77
2022/12/30 01:51:03;;;;;;;9.20;2.00;;;8.20;99.90;;;6.58;80.91;100177.56;4996679;28;20046;-77
2022/12/30 01:53:35;;;;;;;10.15;2.03;;;8.20;99.90;;;6.50;81.33;100175.03;4996329;28;20038;-78
2022/12/30 01:56:19;;;;;;;11.23;2.08;;;8.10;99.90;;;6.42;80.68;100184.16;4996238;28;20026;-78
2022/12/30 01:59:00;;;;;;;9.07;2.80;;;8.00;99.90;;;6.41;80.78;100187.06;4995852;28;20061;-77
2022/12/30 02:01:27;;;;;;;7.68;1.90;;;8.00;99.90;;;6.39;81.51;100190.00;5000655;28;20030;-78
2022/12/30 02:04:04;;;;;;;9.68;2.00;;;8.00;99.90;;;6.45;80.56;100189.19;4995955;28;20116;-78
2022/12/30 02:06:55;;;;;;;13.57;2.20;;;8.00;99.90;;;6.45;81.27;100205.44;5001983;28;20073;-77
2022/12/30 02:09:22;;;;;;;13.75;2.47;;;8.00;99.90;;;6.44;81.98;100202.91;4996141;28;20034;-77
2022/12/30 02:11:49;;;;;;;9.80;2.30;;;8.00;99.90;;;6.41;81.99;100201.47;4999604;28;20077;-77
2022/12/30 02:14:15;;;;;;;8.70;1.92;;;8.00;99.90;;;6.45;81.53;100204.59;4996884;28;20113;-77
2022/12/30 02:17:13;;;;;;;8.05;2.20;;;8.00;99.90;;;6.48;80.61;100194.19;4995743;28;20062;-77
2022/12/30 02:20:19;;;;;;;7.35;2.10;;;8.10;99.90;;;6.45;81.33;100189.19;5005372;28;20056;-77
2022/12/30 02:23:17;;;;;;;8.65;2.03;;;8.10;99.90;;;6.54;80.91;100194.41;4995425;28;20142;-77
2022/12/30 02:25:53;;;;;;;8.85;2.58;;;8.10;99.90;;;6.53;79.65;100179.19;5000274;28;20042;-77
2022/12/30 02:28:55;;;;;;;10.40;2.17;;;8.20;99.90;;;6.51;81.27;100202.97;4995692;28;20053;-77
2022/12/30 02:31:52;;;;;;;9.45;2.00;;;8.10;99.90;;;6.46;81.46;100190.84;4996702;28;20486;-77
2022/12/30 02:35:05;;;;;;;7.35;2.25;;;8.10;99.90;;;6.47;81.29;100208.78;5001386;28;20042;-77
2022/12/30 02:37:54;;;;;;;12.38;2.05;;;8.00;99.90;;;6.43;81.37;100207.50;4996026;28;20069;-77
2022/12/30 02:46:15;;;;;;;11.30;2.88;;;7.90;99.90;;;6.41;81.84;100203.31;5001281;28;20045;-77
2022/12/30 02:48:47;;;;;;;10.38;2.15;;;8.00;99.90;;;6.29;83.12;100203.91;4995283;28;20038;-78
2022/12/30 02:54:00;;;;;;;8.40;2.33;;;7.80;99.90;;;6.17;84.13;100200.91;4995072;28;20102;-78
2022/12/30 02:56:26;;;;;;;10.75;2.13;;;7.80;99.90;;;6.14;83.65;100195.88;4994932;28;20069;-77
2022/12/30 03:05:12;;;;;;;10.75;2.50;;;7.80;99.90;;;6.27;84.26;100207.81;4994765;28;19924;-76
2022/12/30 03:08:06;;;;;;;10.85;2.75;;;7.90;99.90;;;6.28;84.09;100217.63;5004463;28;20128;-77
2022/12/30 03:11:18;;;;;;;10.23;2.20;;;7.90;99.90;;;6.21;84.85;100223.00;4993845;28;20031;-77
2022/12/30 03:14:05;;;;;;;9.32;2.25;;;7.80;99.90;;;6.16;85.89;100231.75;4995542;28;20034;-77
2022/12/30 03:16:53;;;;;;;7.57;2.22;;;7.70;99.90;;;6.07;86.87;100229.38;4994322;28;20097;-77
2022/12/30 03:19:25;;;;;;;12.82;2.70;;;7.70;99.90;;;6.10;86.73;100234.41;4994368;28;20037;-77
2022/12/30 03:21:53;;;;;;;11.50;2.50;;;7.70;99.90;;;6.04;87.45;100230.59;4993398;28;20030;-77
2022/12/30 03:27:15;;;;;;;12.95;2.70;;;7.50;99.90;;;5.94;88.02;100232.78;4995085;28;20497;-76
2022/12/30 03:29:53;;;;;;;12.68;2.75;;;7.50;99.90;;;5.87;88.51;100236.28;5009572;28;20799;-76
2022/12/30 03:32:21;;;;;;;10.68;2.50;;;7.40;99.90;;;5.87;88.25;100238.16;4994738;28;20034;-77
2022/12/30 03:34:48;;;;;;;14.15;2.22;;;7.40;99.90;;;5.80;88.66;100235.38;4993157;28;20112;-76
2022/12/30 03:37:29;;;;;;;12.75;2.88;;;7.40;99.90;;;5.82;88.65;100238.72;4994268;28;20482;-76
2022/12/30 03:40:13;;;;;;;13.25;2.58;;;7.40;99.90;;;5.68;90.08;100242.34;5009763;28;20026;-76
2022/12/30 03:42:39;;;;;;;11.15;2.72;;;7.30;99.90;;;5.66;89.93;100236.31;4991826;28;20489;-76
2022/12/30 03:45:06;;;;;;;16.35;3.08;;;7.20;99.90;;;5.73;88.99;100240.75;4994670;28;20037;-76
2022/12/30 03:47:32;;;;;;;8.70;2.50;;;7.30;99.90;;;5.79;88.10;100244.53;4994187;28;20034;-76
2022/12/30 03:49:58;;;;;;;12.57;2.58;;;7.30;99.90;;;5.73;88.64;100239.91;4993672;28;20113;-76
2022/12/30 03:52:23;;;;;;;11.07;2.58;;;7.40;99.90;;;5.72;88.75;100249.06;4994106;28;20050;-77
2022/12/30 03:54:50;;;;;;;9.15;2.33;;;7.30;99.90;;;5.66;90.43;100255.25;4994484;28;20041;-76
2022/12/30 03:57:17;;;;;;;11.48;2.75;;;7.30;99.90;;;5.53;91.65;100259.50;5003905;28;20489;-77
2022/12/30 03:59:43;;;;;;;8.40;2.45;;;7.10;99.90;;;5.51;91.67;100253.44;4993394;28;20038;-77
2022/12/30 04:02:10;;;;;;;11.98;2.70;;;7.10;99.90;;;5.41;93.11;100255.63;4994174;28;20034;-77
2022/12/30 04:04:35;;;;;;;12.00;2.60;;;7.00;99.90;;;5.36;94.13;100264.31;4993408;28;20153;-76
2022/12/30 04:07:02;;;;;;;10.20;2.63;;;6.90;99.90;;;5.39;93.90;100265.81;4991929;28;20352;-77
2022/12/30 04:09:28;;;;;;;8.20;3.30;;;6.90;99.90;;;5.37;94.26;100262.47;4993916;28;20062;-76
2022/12/30 04:11:54;;;;;;;12.00;3.13;;;6.90;99.90;;;5.36;94.23;100258.91;4994073;28;20512;-76
2022/12/30 04:14:20;;;;;;;10.73;2.85;;;7.00;99.90;;;5.36;95.09;100267.03;4993633;28;20134;-76
2022/12/30 04:16:46;;;;;;;13.93;2.78;;;7.00;99.90;;;5.38;95.67;100266.84;5007351;28;20065;-77
2022/12/30 04:19:11;;;;;;;11.38;2.70;;;6.90;99.90;;;5.41;96.00;100274.56;4994110;28;20046;-78
2022/12/30 04:21:37;;;;;;;8.40;2.60;;;7.00;99.90;;;5.48;96.38;100280.88;4994238;28;20402;-77
2022/12/30 04:24:03;;;;;;;22.33;2.95;;;7.10;99.90;;;5.43;97.78;100272.50;4993397;28;20039;-76
2022/12/30 04:26:29;;;;;;;9.80;2.58;;;7.00;99.90;;;5.44;99.17;100274.19;4993813;28;20035;-76
2022/12/30 04:28:55;;;;;;;14.35;2.75;;;7.10;99.90;;;5.51;99.21;100272.38;5008786;28;20504;-76
2022/12/30 04:31:20;;;;;;;13.65;2.95;;;7.10;99.90;;;5.51;100.00;100269.66;4993502;28;20042;-77
2022/12/30 04:33:53;;;;;;;10.05;2.97;;;7.10;99.90;;;5.56;99.19;100283.47;4995265;28;20093;-76
2022/12/30 04:36:20;;;;;;;12.70;3.00;;;7.20;99.90;;;5.48;100.00;100272.75;4996289;28;20131;-76
2022/12/30 04:38:46;;;;;;;11.13;2.72;;;7.10;99.90;;;5.44;100.00;100276.88;4997429;28;20039;-76
2022/12/30 04:41:13;;;;;;;9.70;2.65;;;7.10;99.90;;;5.37;100.00;100278.69;4997094;28;20070;-77
2022/12/30 04:43:39;;;;;;;9.93;2.85;;;7.00;99.90;;;5.31;100.00;100286.56;5016152;28;20104;-76
2022/12/30 04:46:05;;;;;;;16.13;3.40;;;6.90;99.90;;;5.31;100.00;100297.38;4996995;28;20046;-76
2022/12/30 04:48:31;;;;;;;14.00;3.17;;;6.90;99.90;;;5.26;100.00;100299.78;4997153;28;20552;-76
2022/12/30 04:50:57;;;;;;;12.32;2.92;;;6.90;99.90;;;5.21;100.00;100302.22;5001186;28;20038;-76
2022/12/30 04:53:22;;;;;;;11.55;3.28;;;6.80;99.90;;;5.16;100.00;100307.38;5001092;28;20653;-76
2022/12/30 04:55:53;;;;;;;14.65;2.90;;;6.80;99.90;;;5.10;100.00;100302.72;4996992;28;20038;-77
2022/12/30 04:58:19;;;;;;;10.10;2.63;;;6.70;99.90;;;5.14;100.00;100312.97;5018817;28;20034;-77
2022/12/30 05:00:48;;;;;;;17.25;3.28;;;6.70;99.90;;;5.19;100.00;100312.41;4997042;28;20038;-77
2022/12/30 05:03:14;;;;;;;12.68;2.78;;;6.70;99.90;;;5.08;100.00;100311.03;5011726;28;20042;-77
2022/12/30 05:05:39;;;;;;;9.80;2.97;;;6.70;99.90;;;4.94;100.00;100315.41;4997811;28;20637;-77
2022/12/30 05:08:05;;;;;;;12.90;3.15;;;6.60;99.90;;;4.92;100.00;100316.66;4994360;28;20038;-78
2022/12/30 05:10:37;;;;;;;8.88;2.58;;;6.50;99.90;;;4.91;100.00;100310.38;4996266;28;20045;-78
2022/12/30 05:13:02;;;;;;;15.23;2.75;;;6.50;99.90;;;4.89;100.00;100321.38;4996623;28;20038;-78
2022/12/30 05:15:28;;;;;;;13.43;2.70;;;6.50;99.90;;;4.84;100.00;100323.81;5016135;28;20053;-77
2022/12/30 05:17:55;;;;;;;13.55;3.83;;;6.50;99.90;;;4.83;100.00;100329.41;4996496;28;20037;-77
2022/12/30 05:20:21;;;;;;;13.10;3.70;;;6.40;99.90;;;4.79;100.00;100334.34;5002919;28;20038;-77
2022/12/30 05:22:47;;;;;;;8.65;2.72;;;6.40;99.90;;;4.72;100.00;100319.91;5013866;28;20060;-77
2022/12/30 05:27:57;;;;;;;10.00;3.15;;;6.30;99.90;;;4.60;100.00;100333.03;4996318;28;20046;-77
2022/12/30 05:30:23;;;;;;;14.50;3.47;;;6.20;99.90;;;4.57;100.00;100333.41;4996611;28;20041;-77
2022/12/30 05:32:48;;;;;;;12.77;3.10;;;6.10;99.90;;;4.57;100.00;100336.13;5014762;28;20037;-77
2022/12/30 05:35:14;;;;;;;13.27;3.10;;;6.20;99.90;;;4.53;100.00;100332.13;4997424;28;20034;-77
2022/12/30 05:37:40;;;;;;;9.65;3.40;;;6.20;99.90;;;4.60;100.00;100335.75;4997606;28;20038;-77
2022/12/30 05:40:07;;;;;;;16.52;3.65;;;6.20;99.90;;;4.73;100.00;100337.81;4996913;28;20030;-77
2022/12/30 05:42:33;;;;;;;12.57;3.22;;;6.30;99.90;;;4.78;100.00;100342.66;5001159;28;20061;-77
2022/12/30 05:44:58;;;;;;;11.20;3.13;;;6.40;99.90;;;4.81;100.00;100339.59;4995575;28;20039;-77
2022/12/30 05:47:24;;;;;;;13.52;3.00;;;6.40;99.90;;;4.84;100.00;100333.81;4996346;28;20408;-77
2022/12/30 05:49:50;;;;;;;10.20;2.80;;;6.50;99.90;;;4.86;100.00;100350.66;5001291;28;20041;-78
2022/12/30 05:52:16;;;;;;;14.07;2.75;;;6.50;99.90;;;4.86;100.00;100347.97;4996456;28;20069;-77
2022/12/30 05:54:42;;;;;;;9.88;2.90;;;6.40;99.90;;;4.84;100.00;100344.63;5010460;28;20038;-78
2022/12/30 05:57:08;;;;;;;12.20;3.05;;;6.40;99.90;;;4.83;100.00;100345.63;4995614;28;20053;-77
2022/12/30 05:59:34;;;;;;;14.45;3.03;;;6.40;99.90;;;4.75;100.00;100341.97;5011328;28;20038;-78
2022/12/30 06:02:00;;;;;;;10.38;2.17;;;6.40;99.90;;;4.65;100.00;100337.91;4996059;28;20041;-77
2022/12/30 06:04:26;;;;;;;16.27;2.63;;;6.30;99.90;;;4.75;100.00;100352.78;4995552;28;20512;-78
2022/12/30 06:06:52;;;;;;;13.68;2.60;;;6.30;99.90;;;4.75;100.00;100347.38;4995573;28;20038;-78
2022/12/30 06:09:19;;;;;;;18.60;3.55;;;6.40;99.90;;;4.71;100.00;100345.25;4996181;28;20113;-77
2022/12/30 06:11:44;;;;;;;13.65;2.60;;;6.30;99.90;;;4.65;100.00;100357.63;4996125;28;20041;-77
2022/12/30 06:14:14;;;;;;;10.57;2.40;;;6.30;99.90;;;4.63;100.00;100358.84;4995624;28;20037;-78
2022/12/30 06:16:40;;;;;;;10.10;2.33;;;6.20;99.90;;;4.57;100.00;100344.22;5001264;28;20061;-77
2022/12/30 06:19:07;;;;;;;10.82;2.60;;;6.20;99.90;;;4.56;100.00;100348.78;4996415;28;20393;-77
2022/12/30 06:21:33;;;;;;;16.58;2.83;;;6.20;99.90;;;4.58;100.00;100356.72;5001832;28;20042;-77
2022/12/30 06:23:59;;;;;;;15.23;2.60;;;6.20;99.90;;;4.56;100.00;100364.16;5007180;28;20092;-77
2022/12/30 06:26:25;;;;;;;11.68;2.70;;;6.10;99.90;;;4.59;100.00;100364.63;4994217;28;20034;-78
2022/12/30 06:28:51;;;;;;;14.10;2.38;;;6.20;99.90;;;4.62;100.00;100360.72;4992752;28;20461;-78
2022/12/30 06:31:17;;;;;;;12.65;2.72;;;6.20;99.90;;;4.61;100.00;100372.56;4996054;28;20042;-77
2022/12/30 06:33:42;;;;;;;10.65;2.70;;;6.20;99.90;;;4.57;100.00;100360.44;4994142;28;20157;-78
2022/12/30 06:36:09;;;;;;;14.32;3.28;;;6.20;99.90;;;4.64;100.00;100365.91;4994916;28;20042;-77
2022/12/30 06:38:35;;;;;;;15.07;2.72;;;6.20;99.90;;;4.73;100.00;100362.94;4995310;28;20061;-77
2022/12/30 06:41:01;;;;;;;16.98;3.17;;;6.30;99.90;;;4.65;100.00;100370.31;4995336;28;20046;-77
2022/12/30 06:43:26;;;;;;;10.70;2.35;;;6.20;99.90;;;4.66;100.00;100359.31;4995013;28;20092;-77
2022/12/30 06:45:52;;;;;;;13.70;2.55;;;6.20;99.90;;;4.64;100.00;100352.41;5001353;28;20038;-77
2022/12/30 06:48:17;;;;;;;10.88;2.42;;;6.20;99.90;;;4.62;100.00;100363.41;4995951;28;20026;-77
2022/12/30 06:50:43;;;;;;;10.52;2.25;;;6.20;99.90;;;4.55;100.00;100359.78;5002061;28;20054;-77
2022/12/30 06:53:09;;;;;;;17.63;2.88;;;6.10;99.90;;;4.64;100.00;100350.56;5001791;28;20034;-76
2022/12/30 06:55:35;;;;;;;15.05;2.40;;;6.20;99.90;;;4.55;100.00;100335.47;5000204;28;20038;-76
2022/12/30 06:58:03;;;;;;;12.95;2.92;;;6.20;99.90;;;4.59;100.00;100358.38;4998859;28;20042;-75
2022/12/30 07:00:28;;;;;;;10.32;2.10;;;6.20;99.90;;;4.58;100.00;100356.72;4995088;28;20044;-74
2022/12/30 07:02:54;;;;;;;9.25;2.88;;;6.20;99.90;;;4.57;100.00;100360.44;4992877;28;20869;-75
2022/12/30 07:05:20;;;;;;;12.05;2.40;;;6.10;99.90;;;4.64;100.00;100358.66;4994176;28;20095;-75
2022/12/30 07:07:45;;;;;;;11.07;2.22;;;6.20;99.90;;;4.70;100.00;100362.50;4995201;28;20038;-75
2022/12/30 07:10:11;;;;;;;14.68;2.40;;;6.20;99.90;;;4.74;100.00;100361.09;4994765;28;20096;-75
2022/12/30 07:12:37;;;;;;;12.25;1.90;;;6.30;99.90;;;4.68;100.00;100362.66;4994692;28;20371;-75
2022/12/30 07:15:03;;;;;;;9.60;2.30;;;6.30;99.90;;;4.74;100.00;100353.81;4993892;28;20042;-74
2022/12/30 07:17:29;;;;;;;13.55;1.90;;;6.30;99.90;;;4.81;100.00;100355.81;4994485;28;20030;-76
2022/12/30 07:19:54;;;;;;;16.27;2.45;;;6.40;99.90;;;4.77;100.00;100349.06;4994464;28;20513;-74
2022/12/30 07:22:20;;;;;;;6.18;1.83;;;6.40;99.90;;;4.83;100.00;100354.56;4993854;28;20049;-75
2022/12/30 07:24:47;;;;;;;19.85;3.00;;;6.40;99.90;;;4.79;100.00;100355.97;5014260;28;20038;-75
2022/12/30 07:27:13;;;;;;;12.93;2.30;;;6.40;99.90;;;4.82;100.00;100366.41;4993329;28;20052;-74
2022/12/30 07:29:39;;;;;;;10.60;2.08;;;6.40;99.90;;;4.86;100.00;100367.72;4993562;28;20038;-75
2022/12/30 07:32:09;;;;;;;8.35;1.75;;;6.40;99.90;;;4.77;100.00;100360.72;5003910;28;20037;-75
2022/12/30 07:34:36;;;;;;;11.23;1.90;;;6.40;99.90;;;4.82;100.00;100363.72;4993160;28;20425;-75
2022/12/30 07:37:03;;;;;;;10.90;2.03;;;6.40;99.90;;;4.89;100.00;100366.50;4994262;28;20383;-75
2022/12/30 07:39:30;;;;;;;14.18;2.38;;;6.50;99.90;;;4.84;100.00;100377.06;4993733;28;20441;-75
2022/12/30 07:41:56;;;;;;;13.57;1.98;;;6.50;99.90;;;4.72;100.00;100374.78;5007961;28;20030;-74
2022/12/30 07:44:22;;;;;;;13.20;2.55;;;6.40;99.90;;;4.78;100.00;100381.31;4993977;28;20068;-74
2022/12/30 07:46:48;;;;;;;8.82;2.10;;;6.40;99.90;;;4.71;100.00;100372.28;4993870;28;20053;-74
2022/12/30 07:49:13;;;;;;;10.10;2.00;;;6.30;99.90;;;4.75;100.00;100379.81;4993154;28;20056;-74
2022/12/30 07:51:39;;;;;;;8.32;1.85;;;6.30;99.90;;;4.74;100.00;100361.91;4993831;28;20148;-73
2022/12/30 07:54:05;;;;;;;10.00;2.08;;;6.40;99.90;;;4.95;100.00;100384.69;4994280;28;20042;-73
2022/12/30 07:56:31;;;;;;;8.45;1.80;;;6.50;99.90;;;5.03;100.00;100381.88;5008914;28;20064;-74
2022/12/30 07:58:58;;;;;;;9.73;2.20;;;6.60;99.90;;;5.13;100.00;100378.91;4997087;28;20097;-74
2022/12/30 08:01:25;;;;;;;7.57;1.88;;;6.70;99.90;;;5.14;100.00;100377.88;4994130;28;20109;-72
2022/12/30 08:03:50;;;;;;;10.50;2.78;;;6.70;99.90;;;5.11;99.89;100377.41;4993002;28;20519;-74
2022/12/30 08:06:19;;;;;;;9.27;2.03;;;6.70;99.90;;;5.11;100.00;100372.00;4993224;28;20045;-72
2022/12/30 08:08:45;;;;;;;;;;;6.70;99.90;;;5.16;98.93;100365.00;4991660;28;20608;-72
2022/12/30 08:11:14;;;;;;;9.10;1.98;;;6.70;99.90;;;5.19;98.60;100358.38;4992646;28;20373;-72
2022/12/30 08:13:43;;;;;;;12.52;2.45;;;6.80;99.90;;;5.14;99.02;100355.41;5008164;28;20038;-73
2022/12/30 08:16:16;;;;;;;13.93;3.35;;;6.70;99.90;;;5.06;98.93;100348.22;4993095;28;20039;-73
2022/12/30 08:18:43;;;;;;;15.05;2.00;;;6.70;99.90;;;5.08;99.17;100362.41;4994389;28;20034;-73
2022/12/30 08:21:14;;;;;;;5.95;1.58;;;6.70;99.90;;;5.09;99.86;100361.38;4992396;28;20046;-72
2022/12/30 08:23:42;;;;;;;10.18;2.15;;;6.70;99.90;;;5.09;99.26;100357.84;4993616;28;20557;-73
2022/12/30 08:26:15;;;;;;;8.15;1.63;;;6.70;99.90;;;5.05;99.89;100373.59;4993909;28;20438;-74
2022/12/30 08:28:42;;;;;;;9.75;1.63;;;6.70;99.90;;;5.07;98.89;100366.13;4993875;28;20034;-73
2022/12/30 08:31:17;;;;;;;8.93;1.77;;;6.70;99.90;;;5.12;98.91;100373.69;4993152;28;20088;-74
2022/12/30 08:33:44;;;;;;;6.43;1.90;;;6.70;99.90;;;5.16;98.24;100367.69;5000871;28;20038;-73
2022/12/30 08:36:14;;;;;;;8.25;1.55;;;6.70;99.90;;;5.20;97.59;100360.06;4992991;28;20507;-73
2022/12/30 08:38:44;;;;;;;6.00;1.67;;;6.80;99.90;;;5.24;97.72;100366.75;5007024;28;20042;-73
2022/12/30 08:41:15;;;;;;;7.97;1.50;;;6.80;99.90;;;5.23;97.57;100364.25;4998956;28;20077;-73
2022/12/30 08:43:41;;;;;;;10.13;1.52;;;6.80;99.90;;;5.16;97.43;100364.16;4987159;28;20065;-72
2022/12/30 08:46:07;;;;;;;10.32;1.60;;;6.80;99.90;;;5.22;97.72;100371.53;4993539;28;20042;-73
2022/12/30 08:48:33;;;;;;;6.85;1.40;;;6.80;99.90;;;5.21;97.41;100369.03;4992786;28;20043;-73
2022/12/30 08:51:00;;;;;;;5.72;1.42;;;6.80;99.90;;;5.20;97.70;100373.59;5005293;28;20034;-73
2022/12/30 08:53:25;;;;;;;9.38;1.45;;;6.80;99.90;;;5.24;97.26;100366.75;4993750;28;20912;-73
2022/12/30 08:56:05;;;;;;;9.35;1.65;;;6.90;99.90;;;5.33;96.07;100373.75;4993308;28;20117;-74
2022/12/30 08:58:32;;;;;;;8.07;1.50;;;6.90;99.90;;;5.44;95.62;100369.75;4993977;28;20073;-72
2022/12/30 09:00:58;;;;;;;4.78;1.25;;;7.00;99.90;;;5.57;93.76;100374.47;4997811;28;20041;-73
2022/12/30 09:03:24;;;;;;;8.05;1.70;;;7.10;99.90;;;5.65;93.10;100367.25;4993007;28;20042;-72
2022/12/30 09:05:54;;;;;;;8.00;1.80;;;7.20;99.90;;;5.68;92.68;100361.47;4992584;28;20061;-73
2022/12/30 09:08:21;;;;;;;10.65;1.80;;;7.30;99.90;;;5.72;92.84;100368.16;4999162;28;20066;-73
2022/12/30 09:11:03;;;;;;;9.48;2.38;;;7.30;99.90;;;5.75;91.56;100375.88;4998134;28;20045;-74
2022/12/30 09:13:30;;;;;;;9.48;1.40;;;7.30;99.90;;;5.76;91.38;100364.88;5007704;28;20038;-72
2022/12/30 09:15:57;;;;;;;10.48;1.58;;;7.40;99.90;;;5.83;90.98;100373.06;4993368;28;20081;-73
2022/12/30 09:18:23;;;;;;;10.65;1.67;;;7.50;99.90;;;5.84;91.33;100377.47;4992618;28;20037;-72
2022/12/30 09:20:50;;;;;;;8.98;1.65;;;7.50;99.90;;;5.89;90.66;100376.88;4993059;28;20182;-72
2022/12/30 09:23:16;;;;;;;11.80;1.70;;;7.50;99.90;;;5.94;91.61;100379.84;4996654;28;20074;-72
2022/12/30 09:25:42;;;;;;;5.78;1.20;;;7.50;99.90;;;5.98;90.68;100380.28;5002899;28;20042;-72
2022/12/30 09:28:07;;;;;;;7.78;1.65;;;7.60;99.90;;;5.93;90.17;100370.03;5004248;28;20072;-73
2022/12/30 09:30:33;;;;;;;8.73;1.58;;;7.60;99.90;;;6.00;90.48;100386.34;5001555;28;20032;-73
2022/12/30 09:32:59;;;;;;;9.75;1.55;;;7.60;99.90;;;5.97;90.95;100378.63;4996349;28;20140;-73
2022/12/30 09:35:24;;;;;;;9.13;1.75;;;7.60;99.90;;;6.10;91.21;100372.53;4996713;28;20054;-72
2022/12/30 09:37:50;;;;;;;9.13;1.38;;;7.70;99.90;;;6.13;90.69;100372.13;4994194;28;20034;-73
2022/12/30 09:40:41;;;;;;;8.23;1.60;;;7.80;99.90;;;6.22;90.39;100375.56;4997143;28;20043;-72
2022/12/30 09:43:55;;;;;;;6.35;1.30;;;7.90;99.90;;;6.21;89.01;100357.63;5009469;28;20454;-72
2022/12/30 09:46:49;;;;;;;7.57;1.50;;;8.00;99.90;;;6.35;87.71;100362.09;4992524;28;20050;-74
2022/12/30 09:49:35;;;;;;;9.15;1.70;;;8.20;99.90;;;6.45;87.91;100372.59;4996345;28;20042;-73
2022/12/30 09:52:16;;;;;;;8.23;1.48;;;8.30;99.90;;;6.50;86.30;100370.16;4996162;28;20140;-74
2022/12/30 09:54:52;;;;;;;8.60;1.63;;;8.50;99.90;;;6.65;85.38;100364.66;4993980;28;20034;-74
2022/12/30 09:57:30;;;;;;;8.27;1.35;;;8.50;99.90;;;7.04;81.86;100343.41;5005411;28;20514;-74
2022/12/30 10:00:12;;;;;;;6.68;1.88;;;8.80;99.90;;;7.60;78.79;100352.38;4993881;28;20497;-73
2022/12/30 10:03:25;;;;;;;7.30;1.75;;;9.20;99.90;;;7.80;76.06;100332.56;4997497;28;20034;-73
2022/12/30 10:06:21;;;;;;;9.60;1.75;;;9.50;99.90;;;7.99;74.51;100339.09;5020851;28;20490;-74
2022/12/30 10:09:30;;;;;;;11.30;1.95;;;9.70;99.90;;;7.66;74.66;100323.56;5009646;28;20046;-73
2022/12/30 10:12:14;;;;;;;6.47;1.27;;;9.40;99.90;;;7.46;75.92;100335.22;5004470;28;20116;-72
2022/12/30 10:15:19;;;;;;;13.43;2.72;;;9.00;99.90;;;7.56;76.58;100332.94;5011937;28;20143;-71
2022/12/30 10:18:12;;;;;;;7.60;1.65;;;9.10;99.90;;;7.40;76.84;100322.44;5007914;28;20104;-74
2022/12/30 10:20:55;;;;;;;6.47;1.67;;;8.90;99.90;;;7.50;76.67;100309.34;5010586;28;20085;-73
2022/12/30 10:24:03;;;;;;;7.40;1.40;;;8.90;99.90;;;7.73;75.95;100319.00;4996500;28;20445;-73
2022/12/30 10:26:48;;;;;;;8.80;1.55;;;9.10;99.90;;;7.84;73.96;100307.50;5017676;28;20050;-71
2022/12/30 10:29:43;;;;;;;6.50;1.40;;;9.10;99.90;;;7.87;74.33;100292.69;4999250;28;20741;-71
2022/12/30 10:32:20;;;;;;;7.32;1.40;;;9.30;99.90;;;7.92;71.58;100284.75;4993346;28;20141;-72
2022/12/30 10:34:48;;;;;;;9.90;1.40;;;9.40;99.90;;;7.90;73.39;100286.84;4999431;28;20030;-73
2022/12/30 10:37:29;;;;;;;4.60;1.33;;;9.40;99.90;;;8.20;71.84;100265.50;5012604;28;20042;-72
2022/12/30 10:39:55;;;;;;;5.57;1.42;;;9.60;99.90;;;8.19;70.95;100268.44;5011317;28;20078;-72
2022/12/30 10:43:03;;;;;;;10.07;1.65;;;9.70;99.90;;;8.20;71.59;100267.41;5007326;28;20034;-72
2022/12/30 10:46:16;;;;;;;9.63;1.45;;;9.70;99.90;;;7.74;73.67;100250.88;5012544;28;20450;-71
2022/12/30 10:48:53;;;;;;;7.57;1.63;;;9.50;99.90;;;7.64;76.00;100258.63;5011090;28;20128;-72
2022/12/30 10:51:20;;;;;;;7.32;2.03;;;9.20;99.90;;;7.54;76.38;100241.88;5014677;28;20038;-73
2022/12/30 10:53:50;;;;;;;7.88;1.35;;;9.20;99.90;;;7.39;76.77;100239.34;5008072;28;20034;-74
2022/12/30 10:56:24;;;;;;;8.73;1.42;;;9.00;99.90;;;7.32;77.83;100225.78;5008078;28;20481;-74
2022/12/30 10:58:55;;;;;;;7.35;1.48;;;8.90;99.90;;;7.31;78.91;100229.53;5003375;28;20034;-73
2022/12/30 11:01:28;;;;;;;6.43;1.30;;;8.90;99.90;;;7.13;79.17;100216.53;5005297;28;20042;-73
2022/12/30 11:03:58;;;;;;;6.82;1.40;;;8.80;99.90;;;7.15;80.46;100209.03;5005844;28;20065;-73
2022/12/30 11:06:27;;;;;;;7.75;1.50;;;8.80;99.90;;;7.05;80.80;100195.88;5006381;28;20378;-73
2022/12/30 11:09:15;;;;;;;6.35;1.10;;;8.70;99.90;;;7.05;81.77;100196.69;5000659;28;20038;-74
2022/12/30 11:14:52;;;;;;;5.63;1.20;;;8.70;99.90;;;7.21;80.00;100186.53;4991098;28;20038;-73
2022/12/30 11:17:20;;;;;;;6.68;1.10;;;8.80;99.90;;;7.23;80.11;100183.59;4994086;28;20517;-73
2022/12/30 11:19:57;;;;;;;7.15;1.02;;;8.80;99.90;;;7.24;80.71;100174.41;5016642;28;20042;-74
2022/12/30 11:22:23;;;;;;;6.97;1.20;;;8.80;99.90;;;7.20;81.30;100168.56;4994789;28;20068;-73
2022/12/30 11:25:23;;;;;;;6.40;1.60;;;8.80;99.90;;;7.08;82.26;100154.78;4995090;28;20030;-73
2022/12/30 11:27:59;;;;;;;9.00;1.75;;;8.70;99.90;;;7.07;84.45;100158.53;4994257;28;20053;-73
2022/12/30 11:30:42;;;;;;;6.65;1.35;;;8.70;99.90;;;7.05;84.82;100147.88;4994792;28;20046;-73
2022/12/30 11:33:21;;;;;;;5.38;1.40;;;8.70;99.90;;;7.00;84.70;100141.38;5005869;28;20092;-73
2022/12/30 11:35:49;;;;;;;5.82;1.30;;;8.70;99.90;;;7.01;83.66;100130.34;4994225;28;20120;-73